Aeroporto :
LOGIN :

Iscrizione | Disclaimer

   EN    FR    IT 

 










Sommario :    VFR   VFR Marginale   IFR   IFR Intensivo   IFR Molto Intensivo
Visibilità : 
Base nubi : 
>= 8 km
>= 3000ft
5 / 8 km
1000 / 3000 ft
1500m / 5 km
500 / 1000 ft
800 / 1500m
200 / 500 ft
< 800m
< 200 ft
Simboli :   Temporali  Nebbia  Neve Forte  Precipitazioni Forti  Vento > 20 kt
SIGMETs :   Varie  Temporali  Ghiacco  Turbolenza  Onda orograficha  Ceneri Vulcaniche






- Altitudine del aeroporto : 184 ft
- Codice IATA : BRU


EBBR - Bruxelles

ULTIMO METAR :
  • 212350Z 36005KT 330V030 0300 R25L/0600N R25R/0800D R01/0600N FZFG OVC001 M02/M02 Q1039 NOSIG

METARs OBSOLETI :
  • 212320Z 28001KT 0300 R25L/0650N R25R/0700N R01/0600N FZFG OVC001 M02/M02 Q1039 NOSIG
  • 212250Z VRB01KT 0300 R25L/0550N R25R/0650N R01/0600D FZFG OVC001 M02/M02 Q1039 NOSIG
  • 212220Z 18003KT 160V220 0300 R25L/0550N R25R/0750N R01/0450N FZFG OVC001 M02/M02 Q1038 NOSIG
  • 212150Z VRB01KT 0300 R25L/0500N R25R/0650N R01/0500N FZFG OVC001 M02/M02 Q1039 NOSIG
  • 212120Z 36003KT 330V030 0300 R25L/0550N R25R/0700N R01/0600N FZFG OVC001 M01/M02 Q1039 NOSIG

TAF TAF EBBR
Valido dal 22 a 00 ore il 23 a 06 ore UTC


212310Z 2200/2306 VRB02KT 0200 FZFG BKN001
BECMG 2209/2211 4000 -DZ BKN006
TEMPO 2211/2218 2000 DZ BKN003
BECMG 2219/2221 0400 FG BKN001



MetMap, La meteo Aeronautica in un colpo d'occhio ! - Copyright ORBIFLY Dicembre 2007 - Disclaimer

ORBIFLY MET'MAP TEAM :

Programmazione e sviluppo : Alexandra Zaïnal
Concezione : Baudouin d'Aumeries
Aiuto per la programmazione : Marc-Olivier Méhu
Supporto tecnico e logistico : Manuel Goepfert
Aiuto per la traduzione : Arnaldo La Scala

Contatto : metmap@orbifly.com




FONTI E CREDITI :

   NOAA